الصفحة الرئيسية
METAR-TAF:

METAR-TAF

مطار :

أنتاناناريفو, مدغشقر

دائرة عرض: 18-48S, خط طول: 047-29E, ارتفاع: 1279 متر

مراقبة الطقس الحالي

تاريخ ووقت الإصدار 26 دقيقة قبل الساعة 06:00UTC
ريح 4 عقدة من الجنوب, الاتجاه يتراوح بين الشرق/الجنوب الشرقي و الجنوب الغربي
درجة الحرارة 15°درجة مئوية
الرطوبة 55%
ضغط 1025 hPa
الرؤية 10 كم أو أكثر
غيوم قليلة على ارتفاع 2000 قدم

METAR: FMMI 160600Z 17004KT 120V230 9999 FEW020 15/06 Q1025 NOSIG

زمن: 09:26 (06:26 UTC)

توقعات

تاريخ ووقت الإصدار 1ساعة و 26 دقيقة قبل الساعة 05:00UTC
التوقعات صالحة من16 الساعة 06 UTC إلى 17 الساعة 12 UTC
ريح 10 عقدة من الجنوب الشرقي
الرؤية 10 كم أو أكثر
غيوم متفرقة على ارتفاع 2000 قدم
نظرية الاحتمالات 30% :
مؤقت
من 17 الساعة 00 UTC إلى 17 الساعة 06 UTC
الرؤية: 4500 متر
غيوم مفككة على ارتفاع 400 قدم
رذاذ, مطر

TAF: FMMI 160500Z 1606/1712 14010KT 9999 SCT020 PROB30 TEMPO 1700/1706 4500 DZRA BKN004

أرصاد الطقس والتوقعات من أكثر من 4000 مطار (تقارير الطقس للمطار METAR والتنبؤ بالطقس بالمطارTAF).

المحطات المتاحة هي النقط الصفراء والحمراء على الخريطة.

حرك المؤشر فوق النقطة لمعرفة اسم المحطة.

ثم انقر لمعرفة أرصاد وتوقعات الطقس.

لتغيير الخارطة: اضغط على الأزرار الخضراء مع رمز الصليب الأسود للتكبير. على الزر الأخضر مع شرطة للتصغير، أو على الأسهم الخضراء للخرائط المجاورة.


METAR-TAF: